Time;durP1;ratioP1;P1;durP2;ratioP2;P2;SDS_P1;SDS_P2;PMS_P1;PMS_P2;Temp;Humidity;BMP_temperature;BMP_pressure;BME280_temperature;BME280_humidity;BME280_pressure;Samples;Min_cycle;Max_cycle;Signal;HPM_P1;HPM_P2
2022/03/25 00:00:25;;;;;;;;;;;;;;;25.82;34.77;94983.75;4950651;28;7009;-58
2022/03/25 00:02:53;;;;;;;;;;;;;;;25.80;35.38;94975.22;4940509;28;7235;-58
2022/03/25 00:05:19;;;;;;;;;;;;;;;25.81;34.65;94982.25;4951873;28;9191;-58
2022/03/25 00:07:48;;;;;;;;;;;;;;;25.79;35.27;94984.75;4943082;28;9708;-58
2022/03/25 00:10:16;;;;;;;;;;;;;;;25.78;35.00;94980.47;4943326;28;7261;-58
2022/03/25 00:12:42;;;;;;;;;;;;;;;25.78;35.05;94978.50;4933759;28;7243;-58
2022/03/25 00:15:09;;;;;;;;;;;;;;;25.78;35.26;94984.00;4950276;28;7381;-58
2022/03/25 00:17:35;;;;;;;;;;;;;;;25.76;34.76;94978.25;4943712;28;9437;-58
2022/03/25 00:20:02;;;;;;;;;;;;;;;25.77;35.11;94982.50;4935983;28;7296;-58
2022/03/25 00:22:28;;;;;;;;;;;;;;;25.76;35.09;94980.22;4938467;28;7088;-58
2022/03/25 00:24:56;;;;;;;;;;;;;;;25.75;34.63;94976.72;4937653;28;6985;-58
2022/03/25 00:27:23;;;;;;;;;;;;;;;25.75;34.90;94979.47;4943316;28;7953;-58
2022/03/25 00:29:49;;;;;;;;;;;;;;;25.76;34.55;94985.75;4925060;28;9172;-58
2022/03/25 00:32:16;;;;;;;;;;;;;;;25.76;34.62;94980.22;4944711;28;7044;-58
2022/03/25 00:34:43;;;;;;;;;;;;;;;25.74;34.37;94985.50;4934357;28;7191;-58
2022/03/25 00:37:10;;;;;;;;;;;;;;;25.73;34.97;94979.22;4929798;28;7079;-58
2022/03/25 00:39:37;;;;;;;;;;;;;;;25.73;34.63;94981.97;4936045;28;8699;-58
2022/03/25 00:42:05;;;;;;;;;;;;;;;25.72;34.27;94982.47;4937828;28;9483;-58
2022/03/25 00:44:35;;;;;;;;;;;;;;;25.70;34.57;94977.47;4939309;28;9139;-58
2022/03/25 00:47:02;;;;;;;;;;;;;;;25.71;34.90;94978.97;4940421;28;9437;-58
2022/03/25 00:49:29;;;;;;;;;;;;;;;25.70;34.77;94976.72;4940440;28;9312;-58
2022/03/25 00:51:57;;;;;;;;;;;;;;;25.71;34.57;94976.22;4954916;28;9343;-58
2022/03/25 00:54:23;;;;;;;;;;;;;;;25.70;34.90;94971.97;4935802;28;9036;-58
2022/03/25 00:56:49;;;;;;;;;;;;;;;25.69;34.76;94959.44;4946987;28;7157;-58
2022/03/25 00:59:16;;;;;;;;;;;;;;;25.67;34.86;94961.16;4938193;28;6868;-58
2022/03/25 01:01:42;;;;;;;;;;;;;;;25.68;34.82;94968.97;4947096;28;7282;-58
2022/03/25 01:04:10;;;;;;;;;;;;;;;25.64;34.97;94962.94;4933066;28;7244;-58
2022/03/25 01:06:39;;;;;;;;;;;;;;;25.64;34.27;94965.69;4943133;28;6998;-58
2022/03/25 01:09:07;;;;;;;;;;;;;;;25.64;34.53;94957.44;4935097;28;6990;-58
2022/03/25 01:11:39;;;;;;;;;;;;;;;25.66;34.22;94971.47;4936992;28;9192;-58
2022/03/25 01:14:06;;;;;;;;;;;;;;;25.65;34.76;94967.19;4951292;28;7478;-58
2022/03/25 01:16:34;;;;;;;;;;;;;;;25.64;34.55;94964.94;4937875;28;9427;-58
2022/03/25 01:19:00;;;;;;;;;;;;;;;25.63;34.58;94966.94;4944782;28;7484;-58
2022/03/25 01:21:26;;;;;;;;;;;;;;;25.63;34.65;94960.66;4951737;28;9222;-58
2022/03/25 01:23:54;;;;;;;;;;;;;;;25.63;34.82;94960.66;4940380;28;7012;-58
2022/03/25 01:26:26;;;;;;;;;;;;;;;25.61;34.81;94961.16;4942353;28;9541;-58
2022/03/25 01:28:52;;;;;;;;;;;;;;;25.60;34.67;94956.91;4935658;28;7241;-58
2022/03/25 01:31:24;;;;;;;;;;;;;;;25.56;34.67;94956.38;4936278;28;8794;-58
2022/03/25 01:33:50;;;;;;;;;;;;;;;25.56;34.77;94955.63;4929132;28;9376;-58
2022/03/25 01:36:18;;;;;;;;;;;;;;;25.58;34.63;94959.41;4948132;28;7352;-58
2022/03/25 01:38:44;;;;;;;;;;;;;;;25.59;34.48;94958.16;4954451;28;7232;-58
2022/03/25 01:41:10;;;;;;;;;;;;;;;25.55;34.71;94954.91;4937808;28;9431;-58
2022/03/25 01:44:00;;;;;;;;;;;;;;;25.55;34.38;94952.16;4934767;28;7051;-58
2022/03/25 01:46:51;;;;;;;;;;;;;;;25.54;34.49;94950.63;4953534;28;8988;-58
2022/03/25 01:49:35;;;;;;;;;;;;;;;25.54;34.37;94952.63;4941047;28;8187;-58
2022/03/25 01:52:08;;;;;;;;;;;;;;;25.53;34.11;94951.91;4961290;28;7282;-58
2022/03/25 01:54:35;;;;;;;;;;;;;;;25.52;34.87;94955.88;4948333;28;9702;-58
2022/03/25 01:57:06;;;;;;;;;;;;;;;25.51;34.84;94945.38;4954833;28;7935;-58
2022/03/25 01:59:33;;;;;;;;;;;;;;;25.51;34.63;94950.88;4941232;28;9296;-58
2022/03/25 02:02:04;;;;;;;;;;;;;;;25.51;34.45;94948.13;4934856;28;9097;-58
2022/03/25 02:04:33;;;;;;;;;;;;;;;25.48;34.38;94947.13;4928825;28;7562;-58
2022/03/25 02:07:00;;;;;;;;;;;;;;;25.47;34.61;94942.84;4954466;28;7242;-58
2022/03/25 02:09:31;;;;;;;;;;;;;;;25.48;34.62;94949.09;4935074;28;8735;-58
2022/03/25 02:12:12;;;;;;;;;;;;;;;25.48;34.38;94938.09;4929596;28;8780;-58
2022/03/25 02:14:41;;;;;;;;;;;;;;;25.46;34.28;94935.84;4940675;28;7063;-58
2022/03/25 02:17:08;;;;;;;;;;;;;;;25.47;34.73;94942.09;4937634;28;7288;-58
2022/03/25 02:19:46;;;;;;;;;;;;;;;25.46;34.46;94941.34;4925533;28;7409;-58
2022/03/25 02:22:13;;;;;;;;;;;;;;;25.46;34.02;94943.34;4949504;28;7303;-58
2022/03/25 02:24:40;;;;;;;;;;;;;;;25.45;33.88;94944.59;4935683;28;9792;-58
2022/03/25 02:27:13;;;;;;;;;;;;;;;25.44;34.01;94943.84;4937798;28;7151;-58
2022/03/25 02:29:44;;;;;;;;;;;;;;;25.43;33.80;94939.56;4926686;29;7998;-58
2022/03/25 02:32:15;;;;;;;;;;;;;;;25.44;33.89;94941.09;4951850;28;8828;-58
2022/03/25 02:34:40;;;;;;;;;;;;;;;25.43;34.53;94942.34;4934352;29;9822;-58
2022/03/25 02:37:07;;;;;;;;;;;;;;;25.43;34.45;94945.09;4928637;28;7092;-58
2022/03/25 02:39:38;;;;;;;;;;;;;;;25.42;34.17;94946.34;4946935;29;7639;-58
2022/03/25 02:42:04;;;;;;;;;;;;;;;25.42;33.85;94941.56;4954378;28;8340;-58
2022/03/25 02:44:30;;;;;;;;;;;;;;;25.40;34.28;94937.81;4936015;29;9442;-58
2022/03/25 02:47:16;;;;;;;;;;;;;;;25.40;33.76;94949.56;4937545;29;9108;-58
2022/03/25 02:49:45;;;;;;;;;;;;;;;25.39;33.95;94939.03;4938459;29;7398;-58
2022/03/25 02:52:15;;;;;;;;;;;;;;;25.39;34.55;94941.78;4931785;29;9173;-58
2022/03/25 02:55:14;;;;;;;;;;;;;;;25.40;34.03;94946.06;4937525;29;7830;-58
2022/03/25 02:57:41;;;;;;;;;;;;;;;25.38;34.14;94934.81;4889054;29;7265;-58
2022/03/25 03:00:34;;;;;;;;;;;;;;;25.38;34.17;94940.31;4910656;29;7216;-58
2022/03/25 03:03:12;;;;;;;;;;;;;;;25.38;33.53;94940.31;4908581;29;7082;-58
2022/03/25 03:05:48;;;;;;;;;;;;;;;25.37;33.85;94941.53;4895456;29;8820;-58
2022/03/25 03:08:45;;;;;;;;;;;;;;;25.37;34.35;94944.28;4893357;29;9270;-58
2022/03/25 03:11:12;;;;;;;;;;;;;;;25.36;34.22;94937.25;4842930;29;7005;-58
2022/03/25 03:13:38;;;;;;;;;;;;;;;25.35;34.14;94941.28;4831771;29;7752;-58
2022/03/25 03:16:09;;;;;;;;;;;;;;;25.35;34.38;94938.53;4834526;29;8158;-58
2022/03/25 03:18:39;;;;;;;;;;;;;;;25.35;34.16;94944.78;4829624;29;9506;-58
2022/03/25 03:21:05;;;;;;;;;;;;;;;25.35;34.38;94938.53;4824856;29;9074;-58
2022/03/25 03:23:43;;;;;;;;;;;;;;;25.33;33.90;94932.78;4837935;29;8973;-58
2022/03/25 03:26:22;;;;;;;;;;;;;;;25.33;33.98;94939.03;4824537;29;8832;-58
2022/03/25 03:29:22;;;;;;;;;;;;;;;25.33;33.61;94933.53;4823843;29;9108;-58
2022/03/25 03:31:58;;;;;;;;;;;;;;;25.33;34.25;94921.75;4820815;29;7167;-60
2022/03/25 03:34:24;;;;;;;;;;;;;;;25.32;33.68;94928.50;4839767;29;7889;-60
2022/03/25 03:36:50;;;;;;;;;;;;;;;25.30;33.77;94925.50;4836294;29;9181;-60
2022/03/25 03:39:16;;;;;;;;;;;;;;;25.30;33.71;94931.00;4849398;29;8843;-60
2022/03/25 03:41:44;;;;;;;;;;;;;;;25.28;33.81;94922.47;4856558;29;7130;-59
2022/03/25 03:44:19;;;;;;;;;;;;;;;25.30;33.92;94928.25;4848585;29;7719;-60
2022/03/25 03:46:50;;;;;;;;;;;;;;;25.28;34.22;94926.00;4867069;29;8284;-60
2022/03/25 03:49:24;;;;;;;;;;;;;;;25.28;33.49;94925.25;4897543;29;8546;-60
2022/03/25 03:51:51;;;;;;;;;;;;;;;25.28;34.01;94925.25;4916224;29;8131;-60
2022/03/25 03:54:33;;;;;;;;;;;;;;;25.27;33.69;94927.22;4906168;29;7238;-60
2022/03/25 03:57:08;;;;;;;;;;;;;;;25.28;33.96;94930.75;4911048;29;6988;-60
2022/03/25 03:59:36;;;;;;;;;;;;;;;25.26;34.19;94927.72;4916154;29;8845;-60
2022/03/25 04:02:10;;;;;;;;;;;;;;;25.24;33.96;94933.75;4908606;29;8844;-59
2022/03/25 04:04:51;;;;;;;;;;;;;;;25.22;34.20;94927.97;4910260;29;8838;-59
2022/03/25 04:07:31;;;;;;;;;;;;;;;25.22;34.00;94932.72;4929394;28;8046;-59
2022/03/25 04:09:57;;;;;;;;;;;;;;;25.22;33.90;94929.97;4943324;28;6977;-59
2022/03/25 04:12:23;;;;;;;;;;;;;;;25.21;33.73;94928.47;4937820;28;7270;-59
2022/03/25 04:14:49;;;;;;;;;;;;;;;25.22;34.51;94929.97;4953218;28;9774;-60
2022/03/25 04:17:19;;;;;;;;;;;;;;;25.21;33.86;94931.22;4931266;28;9226;-59
2022/03/25 04:19:48;;;;;;;;;;;;;;;25.20;34.24;94940.72;4936071;28;7059;-60
2022/03/25 04:22:15;;;;;;;;;;;;;;;25.19;33.95;94936.47;4936374;29;7021;-60
2022/03/25 04:24:44;;;;;;;;;;;;;;;25.18;34.15;94935.72;4951987;28;7046;-60
2022/03/25 04:27:19;;;;;;;;;;;;;;;25.18;34.48;94937.72;4954005;28;9110;-60
2022/03/25 04:29:46;;;;;;;;;;;;;;;25.17;34.20;94931.47;4950667;28;7270;-60
2022/03/25 04:32:12;;;;;;;;;;;;;;;25.17;33.92;94923.19;4934863;28;8846;-59
2022/03/25 04:34:38;;;;;;;;;;;;;;;25.17;33.96;94930.69;4951665;28;9065;-60
2022/03/25 04:37:04;;;;;;;;;;;;;;;25.14;34.03;94931.72;4950853;28;7070;-60
2022/03/25 04:39:32;;;;;;;;;;;;;;;25.15;33.49;94927.69;4929905;28;7080;-60
2022/03/25 04:41:59;;;;;;;;;;;;;;;25.16;33.59;94931.97;4951231;28;8080;-59
2022/03/25 04:44:25;;;;;;;;;;;;;;;25.17;34.19;94930.69;4934560;28;9122;-59
2022/03/25 04:46:53;;;;;;;;;;;;;;;25.17;33.66;94930.69;4951812;28;9802;-60
2022/03/25 04:49:20;;;;;;;;;;;;;;;25.16;33.78;94929.22;4939355;28;8436;-60
2022/03/25 04:51:45;;;;;;;;;;;;;;;25.15;33.88;94931.19;4950935;28;7299;-60
2022/03/25 04:54:14;;;;;;;;;;;;;;;25.15;33.93;94930.44;4945113;28;8764;-60
2022/03/25 04:56:49;;;;;;;;;;;;;;;25.14;33.89;94931.72;4938603;28;7981;-60
2022/03/25 04:59:17;;;;;;;;;;;;;;;25.13;33.40;94932.94;4954148;28;7206;-60
2022/03/25 05:01:43;;;;;;;;;;;;;;;25.15;33.86;94935.94;4945265;28;9207;-59
2022/03/25 05:04:11;;;;;;;;;;;;;;;25.15;33.75;94927.69;4942447;28;7260;-60
2022/03/25 05:06:39;;;;;;;;;;;;;;;25.11;33.77;94932.69;4938560;28;9580;-60
2022/03/25 05:09:06;;;;;;;;;;;;;;;25.13;33.25;94938.44;4939631;28;8846;-60
2022/03/25 05:11:33;;;;;;;;;;;;;;;25.14;33.50;94945.47;4937338;28;9044;-60
2022/03/25 05:13:59;;;;;;;;;;;;;;;25.11;33.33;94938.94;4942008;28;9983;-60
2022/03/25 05:16:27;;;;;;;;;;;;;;;25.11;33.83;94940.94;4939394;28;9108;-60
2022/03/25 05:19:01;;;;;;;;;;;;;;;25.10;33.27;94937.44;4953085;28;9179;-60
2022/03/25 05:21:38;;;;;;;;;;;;;;;25.06;33.46;94941.66;4920126;29;9209;-60
2022/03/25 05:24:15;;;;;;;;;;;;;;;25.07;32.96;94946.69;4929501;29;7195;-60
2022/03/25 05:26:49;;;;;;;;;;;;;;;25.07;33.32;94949.44;4937989;28;9436;-60
2022/03/25 05:29:29;;;;;;;;;;;;;;;25.06;33.35;94947.94;4940412;28;9163;-60
2022/03/25 05:32:01;;;;;;;;;;;;;;;25.05;33.28;94951.94;4960851;28;7669;-60
2022/03/25 05:34:27;;;;;;;;;;;;;;;25.06;33.38;94958.19;4938466;28;7873;-59
2022/03/25 05:36:53;;;;;;;;;;;;;;;25.03;33.00;94953.69;4932439;28;7275;-59
2022/03/25 05:39:20;;;;;;;;;;;;;;;25.04;33.35;94955.94;4937866;28;7274;-59
2022/03/25 05:41:50;;;;;;;;;;;;;;;25.04;32.73;94961.44;4938476;28;7225;-60
2022/03/25 05:44:20;;;;;;;;;;;;;;;25.04;32.88;94963.44;4936865;28;9071;-60
2022/03/25 05:46:46;;;;;;;;;;;;;;;25.03;32.80;94961.94;4936746;28;9576;-59
2022/03/25 05:49:12;;;;;;;;;;;;;;;25.00;32.83;94960.16;4937352;28;7759;-60
2022/03/25 05:51:38;;;;;;;;;;;;;;;25.00;33.26;94973.91;4954194;28;9068;-59
2022/03/25 05:54:04;;;;;;;;;;;;;;;25.02;33.54;94965.91;4944729;28;9386;-60
2022/03/25 05:56:30;;;;;;;;;;;;;;;25.03;32.47;94970.19;4951004;28;9117;-59
2022/03/25 05:59:08;;;;;;;;;;;;;;;25.01;32.93;94967.91;4934691;28;7417;-59
2022/03/25 06:01:34;;;;;;;;;;;;;;;25.00;33.28;94969.19;4936229;28;9579;-60
2022/03/25 06:04:00;;;;;;;;;;;;;;;25.00;32.44;94971.16;4932131;28;8956;-59
2022/03/25 06:06:26;;;;;;;;;;;;;;;25.00;32.94;94976.66;4939359;28;9530;-60
2022/03/25 06:08:55;;;;;;;;;;;;;;;25.01;33.06;94972.69;4927799;28;9109;-59
2022/03/25 06:11:22;;;;;;;;;;;;;;;25.02;32.46;94974.19;4948671;28;7414;-59
2022/03/25 06:13:50;;;;;;;;;;;;;;;24.99;32.64;94964.16;4934522;28;9059;-60
2022/03/25 06:16:17;;;;;;;;;;;;;;;25.01;33.05;94969.94;4948948;28;9030;-59
2022/03/25 06:18:44;;;;;;;;;;;;;;;25.02;32.59;94974.19;4948174;28;7366;-59
2022/03/25 06:21:12;;;;;;;;;;;;;;;25.02;32.59;94969.44;4934516;28;7001;-60
2022/03/25 06:23:38;;;;;;;;;;;;;;;25.01;32.54;94970.66;4940516;28;6935;-60
2022/03/25 06:26:07;;;;;;;;;;;;;;;25.01;32.77;94967.19;4929795;28;7250;-60
2022/03/25 06:28:33;;;;;;;;;;;;;;;25.00;32.85;94971.16;4917795;28;7100;-60
2022/03/25 06:30:59;;;;;;;;;;;;;;;25.01;32.63;94978.91;4935933;28;9329;-60
2022/03/25 06:33:25;;;;;;;;;;;;;;;25.00;32.88;94971.16;4925734;28;9448;-60
2022/03/25 06:35:51;;;;;;;;;;;;;;;24.98;32.86;94979.16;4949203;28;7343;-60
2022/03/25 06:38:18;;;;;;;;;;;;;;;24.97;31.87;94980.41;4933583;28;9444;-60
2022/03/25 06:40:46;;;;;;;;;;;;;;;24.98;32.04;94979.16;4931574;28;8218;-60
2022/03/25 06:43:13;;;;;;;;;;;;;;;24.98;32.29;94984.66;4937576;28;9382;-60
2022/03/25 06:45:39;;;;;;;;;;;;;;;24.98;32.52;94984.66;4932089;29;7847;-60
2022/03/25 06:48:06;;;;;;;;;;;;;;;24.96;32.44;94987.16;4933646;29;6996;-60
2022/03/25 06:50:34;;;;;;;;;;;;;;;24.95;32.46;94985.63;4937566;28;7439;-60
2022/03/25 06:53:04;;;;;;;;;;;;;;;24.94;32.33;94979.41;4933786;29;7226;-60
2022/03/25 06:55:35;;;;;;;;;;;;;;;24.95;32.76;94983.66;4944700;28;6990;-61
2022/03/25 06:58:02;;;;;;;;;;;;;;;24.93;32.67;94977.88;4923424;29;7267;-61
2022/03/25 07:00:29;;;;;;;;;;;;;;;24.94;33.36;94984.16;4927047;29;7338;-60
2022/03/25 07:02:55;;;;;;;;;;;;;;;24.95;33.52;94986.41;4930658;29;9486;-59
2022/03/25 07:05:24;;;;;;;;;;;;;;;24.96;33.55;94985.16;4928802;29;7232;-60
2022/03/25 07:07:50;;;;;;;;;;;;;;;24.98;33.04;94985.44;4925896;29;7855;-60
2022/03/25 07:10:23;;;;;;;;;;;;;;;25.00;32.82;94988.44;4945930;28;8863;-60
2022/03/25 07:12:57;;;;;;;;;;;;;;;25.02;32.53;94982.44;4927159;29;9366;-60
2022/03/25 07:15:24;;;;;;;;;;;;;;;25.02;33.17;94985.94;4930778;29;6876;-60
2022/03/25 07:17:54;;;;;;;;;;;;;;;25.03;32.82;94986.69;4921855;29;8890;-60
2022/03/25 07:20:27;;;;;;;;;;;;;;;25.00;33.35;94988.44;4934106;28;9044;-60
2022/03/25 07:22:54;;;;;;;;;;;;;;;25.02;33.24;94991.44;4939434;28;8580;-60
2022/03/25 07:25:21;;;;;;;;;;;;;;;24.99;33.77;94991.69;4932523;28;7505;-61
2022/03/25 07:27:50;;;;;;;;;;;;;;;24.99;33.52;94995.19;4943775;28;8709;-61
2022/03/25 07:30:23;;;;;;;;;;;;;;;24.99;33.72;94991.69;4935044;28;7087;-61
2022/03/25 07:32:51;;;;;;;;;;;;;;;25.00;34.08;94995.94;4934594;28;7296;-61
2022/03/25 07:35:18;;;;;;;;;;;;;;;25.00;34.02;94993.19;4937769;28;7885;-61
2022/03/25 07:37:44;;;;;;;;;;;;;;;24.94;32.93;94993.16;4942985;28;7321;-60
2022/03/25 07:40:15;;;;;;;;;;;;;;;24.94;32.63;94995.16;4936046;28;9102;-60
2022/03/25 07:42:44;;;;;;;;;;;;;;;24.89;32.44;94995.88;4937436;28;9130;-60
2022/03/25 07:45:13;;;;;;;;;;;;;;;24.86;32.44;94988.63;4934102;28;8910;-60
2022/03/25 07:47:42;;;;;;;;;;;;;;;24.86;32.52;94989.34;4953908;28;8857;-60
2022/03/25 07:50:11;;;;;;;;;;;;;;;24.93;32.63;94993.63;4928805;28;7205;-60
2022/03/25 07:52:37;;;;;;;;;;;;;;;24.95;32.65;94991.16;4951510;28;7104;-60
2022/03/25 07:55:05;;;;;;;;;;;;;;;24.97;32.71;94994.19;4932710;28;9121;-60
2022/03/25 07:57:34;;;;;;;;;;;;;;;24.99;32.67;94988.94;4932652;28;8999;-60
2022/03/25 08:00:03;;;;;;;;;;;;;;;24.97;32.77;94994.91;4946445;28;7005;-61
2022/03/25 08:02:34;;;;;;;;;;;;;;;24.97;32.63;94985.94;4936426;28;8765;-61
2022/03/25 08:05:03;;;;;;;;;;;;;;;24.96;32.75;94993.44;4949326;28;9095;-62
2022/03/25 08:07:29;;;;;;;;;;;;;;;24.97;33.46;94994.91;4943262;28;7925;-61
2022/03/25 08:09:58;;;;;;;;;;;;;;;24.92;32.81;94989.41;4947091;28;7281;-61
2022/03/25 08:12:24;;;;;;;;;;;;;;;24.97;33.38;94996.94;4931188;28;8292;-61
2022/03/25 08:14:51;;;;;;;;;;;;;;;24.98;33.29;94992.91;4934078;28;7081;-61
2022/03/25 08:17:18;;;;;;;;;;;;;;;24.98;32.93;94995.69;4931189;28;7236;-61
2022/03/25 08:19:44;;;;;;;;;;;;;;;24.98;33.29;94992.91;4934469;28;9115;-61
2022/03/25 08:22:12;;;;;;;;;;;;;;;24.97;33.35;94992.16;4934906;28;9424;-61
2022/03/25 08:30:09;;;;;;;;;;;;;;;24.97;33.25;94994.19;4954985;28;9591;-60
2022/03/25 08:32:42;;;;;;;;;;;;;;;25.01;32.82;95000.94;4936547;28;7018;-61
2022/03/25 08:35:09;;;;;;;;;;;;;;;25.00;33.56;94995.94;4945352;28;7239;-61
2022/03/25 08:37:35;;;;;;;;;;;;;;;25.00;33.57;94998.69;4947890;28;8722;-60
2022/03/25 08:40:03;;;;;;;;;;;;;;;25.00;33.36;94999.44;4939298;28;8679;-61
2022/03/25 08:42:29;;;;;;;;;;;;;;;25.00;33.22;94998.69;4932578;28;9096;-60
2022/03/25 08:45:21;;;;;;;;;;;;;;;25.02;33.61;94990.69;4937341;28;7108;-61
2022/03/25 08:47:53;;;;;;;;;;;;;;;25.02;33.23;94996.19;4936892;28;7004;-60
2022/03/25 08:50:24;;;;;;;;;;;;;;;25.03;32.97;94997.72;4955419;28;9701;-60
2022/03/25 08:53:26;;;;;;;;;;;;;;;25.02;33.29;95002.47;4955187;28;7965;-60
2022/03/25 08:55:58;;;;;;;;;;;;;;;25.02;33.53;94994.19;4937228;28;8781;-60
2022/03/25 08:58:24;;;;;;;;;;;;;;;25.04;33.73;95001.97;4937071;28;9084;-61
2022/03/25 09:00:52;;;;;;;;;;;;;;;25.05;33.53;94997.97;4931131;28;7320;-61
2022/03/25 09:03:18;;;;;;;;;;;;;;;25.03;33.44;95003.97;4936469;28;10252;-60
2022/03/25 09:06:06;;;;;;;;;;;;;;;25.11;33.48;94998.75;4936055;28;9134;-61
2022/03/25 09:08:34;;;;;;;;;;;;;;;25.22;33.35;95004.31;4930894;28;7438;-61
2022/03/25 09:11:31;;;;;;;;;;;;;;;25.33;33.36;94996.09;4933855;28;8721;-61
2022/03/25 09:13:57;;;;;;;;;;;;;;;25.35;32.60;94994.38;4873705;29;9181;-59
2022/03/25 09:16:24;;;;;;;;;;;;;;;25.30;32.17;94999.84;4857856;29;7707;-59
2022/03/25 09:18:52;;;;;;;;;;;;;;;25.27;32.48;94996.06;4870434;29;9213;-59
2022/03/25 09:21:18;;;;;;;;;;;;;;;25.28;32.19;94999.56;4871517;29;7391;-59
2022/03/25 09:23:46;;;;;;;;;;;;;;;25.29;32.20;94998.34;4860816;29;9100;-59
2022/03/25 09:26:12;;;;;;;;;;;;;;;25.31;32.50;94995.84;4868770;29;7227;-59
2022/03/25 09:28:40;;;;;;;;;;;;;;;25.30;32.69;94999.84;4855387;29;7327;-59
2022/03/25 09:31:08;;;;;;;;;;;;;;;25.27;32.86;95003.59;4849467;29;9039;-59
2022/03/25 09:33:38;;;;;;;;;;;;;;;25.23;32.55;95003.81;4853736;29;6979;-59
2022/03/25 09:36:04;;;;;;;;;;;;;;;25.26;32.15;95013.84;4858085;29;9080;-58
2022/03/25 09:38:30;;;;;;;;;;;;;;;25.22;32.49;95005.06;4875747;29;7387;-59
2022/03/25 09:40:57;;;;;;;;;;;;;;;25.18;31.80;95003.78;4851445;29;9060;-59
2022/03/25 09:43:30;;;;;;;;;;;;;;;25.21;31.13;95003.53;4874651;29;8802;-59
2022/03/25 09:45:57;;;;;;;;;;;;;;;25.18;31.58;95004.56;4855991;29;7163;-59
2022/03/25 09:48:24;;;;;;;;;;;;;;;25.15;33.30;95005.53;4861574;29;9444;-59
2022/03/25 09:50:56;;;;;;;;;;;;;;;25.18;32.42;95003.78;4918559;28;7243;-59
2022/03/25 09:53:29;;;;;;;;;;;;;;;25.20;31.88;95001.31;4937112;28;9113;-59
2022/03/25 09:55:55;;;;;;;;;;;;;;;25.18;32.32;94993.53;4935454;28;7522;-59
2022/03/25 09:58:23;;;;;;;;;;;;;;;25.17;38.58;95002.28;4935639;28;8716;-59
2022/03/25 10:00:52;;;;;;;;;;;;;;;25.18;36.95;94995.53;4935755;28;8919;-59
2022/03/25 10:03:24;;;;;;;;;;;;;;;25.17;35.47;95000.28;4946435;28;7005;-59
2022/03/25 10:05:59;;;;;;;;;;;;;;;25.21;34.81;94991.78;4941109;28;7355;-59
2022/03/25 10:08:35;;;;;;;;;;;;;;;25.18;34.61;94998.28;4953084;28;9764;-59
2022/03/25 10:11:30;;;;;;;;;;;;;;;25.16;34.11;94996.03;4935945;28;7213;-59
2022/03/25 10:14:18;;;;;;;;;;;;;;;25.15;33.96;94988.25;4937605;28;9193;-59
2022/03/25 10:16:49;;;;;;;;;;;;;;;25.15;34.46;94991.00;4954198;28;7571;-59
2022/03/25 10:19:54;;;;;;;;;;;;;;;25.15;34.21;94994.50;4930983;28;9693;-60
2022/03/25 10:23:08;;;;;;;;;;;;;;;25.16;34.47;94987.03;4936191;28;6940;-60
2022/03/25 10:25:45;;;;;;;;;;;;;;;25.17;34.15;94991.25;4873164;29;9313;-60
2022/03/25 10:28:28;;;;;;;;;;;;;;;25.17;34.31;94986.53;4891687;29;9751;-60
2022/03/25 10:31:07;;;;;;;;;;;;;;;25.18;34.09;94977.03;4892798;29;8849;-59
2022/03/25 10:34:21;;;;;;;;;;;;;;;25.18;34.21;94982.53;4885409;29;7237;-59
2022/03/25 10:37:01;;;;;;;;;;;;;;;25.18;34.06;94977.03;4867544;29;8819;-60
2022/03/25 10:39:28;;;;;;;;;;;;;;;25.18;33.87;94979.78;4893541;29;8812;-60
2022/03/25 10:42:00;;;;;;;;;;;;;;;25.19;33.81;94977.75;4895116;29;7253;-60
2022/03/25 10:44:46;;;;;;;;;;;;;;;25.18;34.43;94977.03;4882505;29;8990;-60
2022/03/25 10:47:15;;;;;;;;;;;;;;;25.19;34.47;94983.25;4890226;29;7359;-60
2022/03/25 10:50:13;;;;;;;;;;;;;;;25.18;34.38;94973.50;4871814;29;7271;-59
2022/03/25 10:52:39;;;;;;;;;;;;;;;25.21;34.40;94978.00;4819256;29;8762;-59
2022/03/25 10:55:41;;;;;;;;;;;;;;;25.21;34.12;94983.53;4824321;29;6999;-60
2022/03/25 10:58:19;;;;;;;;;;;;;;;25.26;33.89;94974.53;4810910;29;9353;-60
2022/03/25 11:00:45;;;;;;;;;;;;;;;25.27;33.75;94973.31;4829948;29;8723;-60
2022/03/25 11:03:14;;;;;;;;;;;;;;;25.25;33.17;94968.28;4866576;29;9645;-60
2022/03/25 11:05:41;;;;;;;;;;;;;;;25.22;34.01;94968.53;4864392;29;9257;-60
2022/03/25 11:08:09;;;;;;;;;;;;;;;25.18;33.51;94971.53;4869664;29;9222;-60
2022/03/25 11:10:45;;;;;;;;;;;;;;;25.21;33.70;94962.25;4855637;29;7141;-60
2022/03/25 11:13:11;;;;;;;;;;;;;;;25.22;33.76;94963.78;4854490;29;9745;-60
2022/03/25 11:15:41;;;;;;;;;;;;;;;25.23;33.08;94956.25;4878163;29;7280;-60
2022/03/25 11:18:07;;;;;;;;;;;;;;;25.26;32.75;94971.78;4852553;29;7527;-60
2022/03/25 11:20:44;;;;;;;;;;;;;;;25.28;32.54;94961.03;4874535;29;6997;-60
2022/03/25 11:23:45;;;;;;;;;;;;;;;25.32;33.06;94958.78;4853722;29;6999;-61
2022/03/25 11:26:48;;;;;;;;;;;;;;;25.34;33.52;94956.28;4856708;29;9145;-61
2022/03/25 11:29:23;;;;;;;;;;;;;;;25.34;33.93;94956.28;4822602;29;7274;-61
2022/03/25 11:32:11;;;;;;;;;;;;;;;25.36;33.89;94951.03;4836531;29;9104;-61
2022/03/25 11:34:55;;;;;;;;;;;;;;;25.36;33.82;94945.53;4855920;29;8707;-61
2022/03/25 11:37:29;;;;;;;;;;;;;;;25.39;34.24;94950.06;4858887;29;8663;-61
2022/03/25 11:40:12;;;;;;;;;;;;;;;25.40;34.30;94949.56;4852599;29;7926;-61
2022/03/25 11:42:40;;;;;;;;;;;;;;;25.42;34.03;94940.84;4856461;29;7332;-61
2022/03/25 11:45:34;;;;;;;;;;;;;;;25.43;33.94;94936.81;4854879;29;9223;-60
2022/03/25 11:48:06;;;;;;;;;;;;;;;25.45;33.95;94930.84;4856468;29;8654;-61
2022/03/25 11:50:35;;;;;;;;;;;;;;;25.45;34.12;94917.81;4847208;29;7267;-60
2022/03/25 11:53:10;;;;;;;;;;;;;;;25.46;34.22;94919.31;4852139;29;7039;-60
2022/03/25 11:56:02;;;;;;;;;;;;;;;25.48;33.93;94919.56;4851722;29;9032;-60
2022/03/25 11:58:38;;;;;;;;;;;;;;;25.50;34.53;94914.31;4851444;29;9207;-61
2022/03/25 12:01:17;;;;;;;;;;;;;;;25.51;34.28;94915.84;4848219;29;9119;-60
2022/03/25 12:03:54;;;;;;;;;;;;;;;25.50;34.01;94910.81;4857032;29;9190;-60
2022/03/25 12:06:25;;;;;;;;;;;;;;;25.53;34.28;94913.34;4933250;29;7616;-61
2022/03/25 12:09:18;;;;;;;;;;;;;;;25.54;34.90;94909.31;4947258;29;7542;-60
2022/03/25 12:12:06;;;;;;;;;;;;;;;25.56;34.58;94906.81;4930901;29;8808;-60
2022/03/25 12:15:11;;;;;;;;;;;;;;;25.60;34.40;94904.56;4944734;29;8649;-60
2022/03/25 12:17:39;;;;;;;;;;;;;;;25.61;34.70;94892.31;4936268;29;9031;-61
2022/03/25 12:20:06;;;;;;;;;;;;;;;25.62;34.45;94891.03;4931911;29;9313;-60
2022/03/25 12:22:36;;;;;;;;;;;;;;;25.63;35.21;94884.28;4943746;28;7062;-61
2022/03/25 12:25:23;;;;;;;;;;;;;;;25.65;34.33;94890.06;4937726;28;9462;-60
2022/03/25 12:27:52;;;;;;;;;;;;;;;25.66;34.06;94891.56;4938427;28;7142;-61
2022/03/25 12:30:18;;;;;;;;;;;;;;;25.65;34.34;94878.28;4938165;28;9110;-61
2022/03/25 12:32:52;;;;;;;;;;;;;;;25.63;33.16;94869.75;4938730;28;8790;-60
2022/03/25 12:35:19;;;;;;;;;;;;;;;25.64;33.36;94874.03;4909046;28;1141598;-60
2022/03/25 12:38:08;;;;;;;;;;;;;;;25.65;32.71;94870.00;4952598;28;8778;-61
2022/03/25 12:40:36;;;;;;;;;;;;;;;25.66;32.87;94871.53;4951392;28;7170;-61
2022/03/25 12:43:04;;;;;;;;;;;;;;;25.66;32.67;94871.53;4944946;28;7085;-61
2022/03/25 12:45:37;;;;;;;;;;;;;;;25.67;32.81;94867.50;4936900;28;9419;-60
2022/03/25 12:48:28;;;;;;;;;;;;;;;25.67;32.59;94859.25;4950908;28;9391;-61
2022/03/25 12:50:56;;;;;;;;;;;;;;;25.67;32.79;94860.00;4953701;28;7658;-61
2022/03/25 12:53:25;;;;;;;;;;;;;;;25.69;32.01;94862.25;4937027;28;7378;-61
2022/03/25 12:55:52;;;;;;;;;;;;;;;25.67;32.28;94856.47;4947444;28;7807;-60
2022/03/25 12:58:22;;;;;;;;;;;;;;;25.70;31.66;94856.25;4949075;28;9110;-60
2022/03/25 13:00:52;;;;;;;;;;;;;;;25.71;31.72;94848.75;4930913;28;7312;-60
2022/03/25 13:03:22;;;;;;;;;;;;;;;25.70;31.56;94852.75;4932379;28;8454;-60
2022/03/25 13:05:59;;;;;;;;;;;;;;;25.72;31.60;94853.75;4944969;28;9081;-60
2022/03/25 13:09:03;;;;;;;;;;;;;;;25.77;31.68;94846.75;4937079;28;7022;-60
2022/03/25 13:11:29;;;;;;;;;;;;;;;25.79;31.47;94845.00;4878851;29;9178;-60
2022/03/25 13:14:15;;;;;;;;;;;;;;;25.82;30.83;94843.22;4879706;29;8180;-60
2022/03/25 13:17:07;;;;;;;;;;;;;;;25.84;31.15;94838.69;4894853;29;9073;-60
2022/03/25 13:19:34;;;;;;;;;;;;;;;25.85;31.16;94840.22;4891997;29;7016;-61
2022/03/25 13:22:20;;;;;;;;;;;;;;;25.86;30.31;94832.72;4893648;29;7256;-61
2022/03/25 13:25:01;;;;;;;;;;;;;;;25.87;30.20;94834.97;4893647;29;9561;-60
2022/03/25 13:27:38;;;;;;;;;;;;;;;25.88;31.03;94833.69;4893684;29;7235;-60